Time;durP1;ratioP1;P1;durP2;ratioP2;P2;SDS_P1;SDS_P2;PMS_P1;PMS_P2;Temp;Humidity;BMP_temperature;BMP_pressure;BME280_temperature;BME280_humidity;BME280_pressure;Samples;Min_cycle;Max_cycle;Signal;HPM_P1;HPM_P2
2021/01/18 00:01:03;;;;;;;11.77;4.93;;;;;;;3.29;100.00;102731.95;1909269;75;26183;-77
2021/01/18 00:03:39;;;;;;;14.63;5.47;;;;;;;3.37;100.00;102724.98;1909644;75;26194;-77
2021/01/18 00:06:11;;;;;;;10.37;5.30;;;;;;;3.43;100.00;102721.95;1909256;75;26676;-77
2021/01/18 00:08:42;;;;;;;16.27;5.67;;;;;;;3.55;100.00;102724.56;1909403;75;26232;-77
2021/01/18 00:11:13;;;;;;;16.50;6.17;;;;;;;3.68;100.00;102719.74;1909552;75;26170;-77
2021/01/18 00:13:45;;;;;;;23.23;6.67;;;;;;;3.94;100.00;102712.61;1909461;75;26171;-77
2021/01/18 00:16:22;;;;;;;19.90;6.33;;;;;;;4.22;100.00;102706.32;1909267;75;26244;-76
2021/01/18 00:18:52;;;;;;;14.30;6.07;;;;;;;4.50;100.00;102714.06;1909373;75;26187;-77
2021/01/18 00:21:22;;;;;;;15.27;5.23;;;;;;;4.41;100.00;102715.25;1909707;75;26245;-77
2021/01/18 00:23:53;;;;;;;15.93;4.50;;;;;;;4.45;100.00;102711.09;1909255;75;26210;-77
2021/01/18 00:26:23;;;;;;;15.57;4.87;;;;;;;4.63;100.00;102710.04;1909160;74;26230;-77
2021/01/18 00:28:53;;;;;;;15.93;5.33;;;;;;;4.69;100.00;102710.63;1909144;75;26633;-77
2021/01/18 00:31:25;;;;;;;9.47;4.93;;;;;;;4.70;100.00;102705.45;1909256;75;26641;-77
2021/01/18 00:33:55;;;;;;;18.63;5.13;;;;;;;4.76;100.00;102705.15;1909162;75;26159;-78
2021/01/18 00:36:27;;;;;;;14.00;4.30;;;;;;;4.73;100.00;102706.94;1909397;75;26224;-78
2021/01/18 00:38:57;;;;;;;14.23;5.07;;;;;;;4.74;100.00;102692.98;1909549;75;26193;-78
2021/01/18 00:41:28;;;;;;;11.93;5.03;;;;;;;4.84;100.00;102690.70;1869591;77;26397;-78
2021/01/18 00:43:59;;;;;;;15.63;4.47;;;;;;;4.80;100.00;102692.16;1909156;75;26587;-78
2021/01/18 00:46:29;;;;;;;15.87;4.23;;;;;;;4.77;100.00;102699.45;1909159;75;26166;-78
2021/01/18 00:48:59;;;;;;;14.40;4.93;;;;;;;4.76;100.00;102690.01;1909141;75;26711;-79
2021/01/18 00:51:37;;;;;;;15.67;4.33;;;;;;;4.80;100.00;102691.30;1909236;75;26263;-79
2021/01/18 00:54:07;;;;;;;15.13;4.70;;;;;;;4.79;100.00;102689.62;1909192;75;26182;-78
2021/01/18 00:56:37;;;;;;;15.13;4.63;;;;;;;4.76;100.00;102692.77;1909379;75;26598;-77
2021/01/18 00:59:07;;;;;;;15.53;4.57;;;;;;;4.83;100.00;102698.66;1909356;75;26660;-78
2021/01/18 01:01:37;;;;;;;11.33;4.20;;;;;;;4.93;100.00;102693.61;1909424;75;26240;-78
2021/01/18 01:04:07;;;;;;;16.23;4.50;;;;;;;4.92;100.00;102691.09;1909219;75;26264;-78
2021/01/18 01:06:37;;;;;;;15.13;4.47;;;;;;;4.79;100.00;102691.00;1909123;75;26175;-78
2021/01/18 01:09:08;;;;;;;14.90;4.70;;;;;;;4.74;100.00;102683.34;1909526;75;26190;-78
2021/01/18 01:11:44;;;;;;;12.53;4.00;;;;;;;4.58;100.00;102677.61;1909136;75;26225;-78
2021/01/18 01:14:15;;;;;;;13.03;4.13;;;;;;;4.64;100.00;102680.62;1909064;75;26243;-78
2021/01/18 01:16:45;;;;;;;12.60;4.10;;;;;;;4.62;100.00;102681.36;1909350;75;26163;-78
2021/01/18 01:19:15;;;;;;;14.77;4.50;;;;;;;4.73;100.00;102689.90;1909078;75;26209;-78
2021/01/18 01:21:50;;;;;;;11.30;3.90;;;;;;;4.78;100.00;102689.30;1909162;75;26178;-78
2021/01/18 01:24:20;;;;;;;17.43;4.67;;;;;;;4.75;100.00;102691.09;1909100;75;26313;-78
2021/01/18 01:26:50;;;;;;;10.13;3.57;;;;;;;4.51;100.00;102686.88;1909182;74;26279;-79
2021/01/18 01:29:20;;;;;;;10.40;4.23;;;;;;;4.46;100.00;102683.34;1909244;75;26660;-78
2021/01/18 01:31:50;;;;;;;13.43;3.80;;;;;;;4.47;100.00;102682.31;1909138;75;26190;-78
2021/01/18 01:34:21;;;;;;;10.70;3.93;;;;;;;4.53;100.00;102681.52;1909151;75;26317;-78
2021/01/18 01:36:51;;;;;;;11.10;5.10;;;;;;;4.37;100.00;102673.54;1909311;75;26630;-78
2021/01/18 01:39:21;;;;;;;14.63;4.30;;;;;;;4.40;100.00;102676.44;1909158;75;26182;-78
2021/01/18 01:41:51;;;;;;;12.90;3.87;;;;;;;4.28;100.00;102671.16;1909208;75;26159;-79
2021/01/18 01:44:21;;;;;;;16.07;3.83;;;;;;;4.26;100.00;102667.74;1909231;75;26155;-79
2021/01/18 01:46:51;;;;;;;15.77;4.37;;;;;;;4.13;100.00;102662.46;1909166;75;26613;-78
2021/01/18 01:49:21;;;;;;;13.17;4.07;;;;;;;4.21;100.00;102664.73;1909237;75;26628;-78
2021/01/18 01:51:51;;;;;;;15.73;4.23;;;;;;;4.15;100.00;102666.92;1909079;75;26188;-78
2021/01/18 01:54:21;;;;;;;9.77;3.93;;;;;;;3.99;100.00;102662.53;1909140;75;26174;-78
2021/01/18 01:56:52;;;;;;;12.70;3.80;;;;;;;3.99;100.00;102657.89;1909272;75;26236;-78
2021/01/18 01:59:22;;;;;;;15.63;3.97;;;;;;;4.00;100.00;102650.48;1909232;75;26179;-78
2021/01/18 02:01:52;;;;;;;12.60;3.93;;;;;;;3.99;100.00;102649.64;1909207;75;26159;-78
2021/01/18 02:04:24;;;;;;;14.63;4.30;;;;;;;4.05;100.00;102653.50;1909256;75;26170;-79
2021/01/18 02:06:54;;;;;;;12.37;4.83;;;;;;;4.06;100.00;102640.91;1909123;75;26186;-78
2021/01/18 02:09:24;;;;;;;14.10;4.70;;;;;;;3.95;100.00;102639.23;1909229;75;26267;-78
2021/01/18 02:11:53;;;;;;;14.30;4.13;;;;;;;3.74;100.00;102640.09;1909126;75;26180;-79
2021/01/18 02:14:31;;;;;;;13.73;4.57;;;;;;;3.71;100.00;102636.37;1909122;75;26182;-78
2021/01/18 02:17:05;;;;;;;15.97;4.87;;;;;;;3.87;100.00;102639.38;1909217;75;26178;-78
2021/01/18 02:20:30;;;;;;;10.93;3.73;;;;;;;3.73;100.00;102645.26;1909112;75;26197;-78
2021/01/18 02:23:35;;;;;;;12.80;3.83;;;;;;;3.48;100.00;102647.54;1909087;75;26217;-78
2021/01/18 02:26:09;;;;;;;15.20;4.53;;;;;;;3.79;100.00;102638.98;1909213;75;26170;-78
2021/01/18 02:28:55;;;;;;;16.93;4.40;;;;;;;3.84;100.00;102633.76;1909020;74;26238;-78
2021/01/18 02:31:42;;;;;;;13.93;4.23;;;;;;;3.72;100.00;102635.86;1908898;75;26178;-77
2021/01/18 02:34:41;;;;;;;12.20;4.17;;;;;;;3.64;100.00;102632.17;1909165;75;26237;-77
2021/01/18 02:37:36;;;;;;;14.80;3.87;;;;;;;3.66;100.00;102629.23;1909105;75;26302;-77
2021/01/18 02:40:09;;;;;;;15.40;5.10;;;;;;;3.82;100.00;102624.84;1909341;75;26295;-77
2021/01/18 02:42:42;;;;;;;14.73;4.93;;;;;;;3.61;100.00;102623.47;1909153;75;26218;-77
2021/01/18 02:45:14;;;;;;;12.00;4.40;;;;;;;3.45;100.00;102619.09;1909406;75;26178;-77
2021/01/18 02:47:47;;;;;;;15.27;4.77;;;;;;;3.75;100.00;102621.71;1909099;75;26249;-76
2021/01/18 02:50:19;;;;;;;13.97;4.70;;;;;;;3.51;100.00;102616.06;1909107;75;26155;-76
2021/01/18 02:52:49;;;;;;;13.80;4.53;;;;;;;3.49;100.00;102612.68;1909416;75;26182;-77
2021/01/18 02:55:19;;;;;;;14.97;4.57;;;;;;;3.49;100.00;102614.91;1909291;75;26676;-76
2021/01/18 02:57:52;;;;;;;14.20;4.53;;;;;;;3.52;100.00;102621.38;1909368;75;26186;-77
2021/01/18 03:00:26;;;;;;;13.17;4.93;;;;;;;3.62;100.00;102622.44;1909261;75;26198;-76
2021/01/18 03:03:02;;;;;;;13.57;4.53;;;;;;;3.65;100.00;102620.14;1909197;75;26686;-77
2021/01/18 03:05:38;;;;;;;12.83;4.97;;;;;;;3.70;100.00;102625.56;1909431;75;26190;-77
2021/01/18 03:08:28;;;;;;;19.97;4.90;;;;;;;3.61;100.00;102624.84;1909202;75;26233;-77
2021/01/18 03:11:03;;;;;;;10.50;3.93;;;;;;;3.61;100.00;102616.61;1909340;75;26174;-78
2021/01/18 03:13:35;;;;;;;16.83;5.17;;;;;;;3.38;100.00;102620.90;1909250;75;26174;-77
2021/01/18 03:16:11;;;;;;;10.27;4.40;;;;;;;3.32;100.00;102612.60;1909410;75;26613;-78
2021/01/18 03:18:43;;;;;;;12.60;4.93;;;;;;;3.27;100.00;102612.33;1909016;75;26256;-77
2021/01/18 03:21:14;;;;;;;17.20;4.80;;;;;;;3.15;100.00;102602.38;1909212;75;26376;-78
2021/01/18 03:23:45;;;;;;;18.33;5.00;;;;;;;3.18;100.00;102605.58;1909124;75;26275;-77
2021/01/18 03:26:15;;;;;;;16.87;4.37;;;;;;;3.18;100.00;102595.97;1909208;75;26221;-78
2021/01/18 03:28:45;;;;;;;15.07;4.50;;;;;;;3.53;100.00;102582.39;1909185;74;26323;-78
2021/01/18 03:31:15;;;;;;;11.30;4.80;;;;;;;3.43;100.00;102579.11;1909118;75;26240;-77
2021/01/18 03:33:45;;;;;;;15.03;5.03;;;;;;;3.15;100.00;102579.89;1909255;75;26248;-77
2021/01/18 03:36:15;;;;;;;13.90;5.17;;;;;;;3.18;100.00;102573.15;1909223;75;26242;-77
2021/01/18 03:38:44;;;;;;;14.47;4.60;;;;;;;3.26;100.00;102571.66;1909231;75;26178;-77
2021/01/18 03:41:14;;;;;;;15.43;4.60;;;;;;;3.55;100.00;102564.66;1909144;75;26191;-77
2021/01/18 03:43:44;;;;;;;14.83;4.70;;;;;;;3.69;100.00;102564.25;1909378;75;26240;-77
2021/01/18 03:46:14;;;;;;;16.50;5.37;;;;;;;3.43;100.00;102564.86;1909181;75;26175;-78
2021/01/18 03:48:44;;;;;;;14.60;4.60;;;;;;;3.47;100.00;102568.91;1909198;75;26261;-78
2021/01/18 03:51:14;;;;;;;13.40;5.60;;;;;;;3.14;100.00;102564.45;1909179;75;26181;-78
2021/01/18 03:53:44;;;;;;;12.00;4.47;;;;;;;3.36;100.00;102565.33;1909119;75;26171;-78
2021/01/18 03:56:14;;;;;;;13.07;4.60;;;;;;;3.12;100.00;102563.78;1909143;75;26178;-78
2021/01/18 03:58:44;;;;;;;14.20;4.77;;;;;;;3.18;100.00;102573.15;1909238;75;26271;-78
2021/01/18 04:01:14;;;;;;;10.63;4.00;;;;;;;3.17;100.00;102568.70;1909355;75;26194;-77
2021/01/18 04:03:44;;;;;;;10.17;4.00;;;;;;;2.75;100.00;102563.98;1909189;75;26193;-77
2021/01/18 04:06:14;;;;;;;12.00;3.93;;;;;;;2.42;100.00;102564.92;1909287;75;26645;-78
2021/01/18 04:08:44;;;;;;;7.83;3.70;;;;;;;2.41;100.00;102554.98;1909281;75;26202;-78
2021/01/18 04:11:14;;;;;;;13.93;4.20;;;;;;;2.40;100.00;102566.14;1909177;75;26179;-77
2021/01/18 04:13:43;;;;;;;13.33;4.13;;;;;;;2.40;100.00;102560.14;1909210;75;26634;-77
2021/01/18 04:16:13;;;;;;;15.90;4.23;;;;;;;2.38;100.00;102554.52;1909211;75;26187;-77
2021/01/18 04:18:43;;;;;;;13.20;4.23;;;;;;;2.37;100.00;102544.07;1909292;75;26174;-77
2021/01/18 04:21:14;;;;;;;16.83;5.03;;;;;;;2.46;100.00;102550.31;1909147;75;26260;-77
2021/01/18 04:23:45;;;;;;;13.73;4.40;;;;;;;2.50;100.00;102548.89;1909207;75;26211;-76
2021/01/18 04:26:15;;;;;;;16.80;4.40;;;;;;;2.43;100.00;102551.55;1909176;75;26673;-77
2021/01/18 04:28:45;;;;;;;11.23;3.90;;;;;;;2.28;100.00;102548.80;1909143;74;26327;-77
2021/01/18 04:31:14;;;;;;;11.47;4.60;;;;;;;2.27;100.00;102547.09;1909158;75;26159;-77
2021/01/18 04:33:44;;;;;;;10.03;3.90;;;;;;;2.16;100.00;102549.46;1909152;75;26618;-78
2021/01/18 04:36:14;;;;;;;12.67;4.33;;;;;;;2.17;100.00;102542.43;1909089;75;26640;-77
2021/01/18 04:38:44;;;;;;;11.47;4.37;;;;;;;2.34;100.00;102544.46;1909202;75;26186;-78
2021/01/18 04:41:14;;;;;;;10.67;4.20;;;;;;;2.03;100.00;102537.78;1909106;75;26734;-78
2021/01/18 04:43:46;;;;;;;13.13;4.80;;;;;;;2.16;100.00;102541.23;1909113;75;26634;-78
2021/01/18 04:46:17;;;;;;;18.43;4.47;;;;;;;2.03;100.00;102536.93;1909139;75;26178;-77
2021/01/18 04:48:47;;;;;;;8.13;3.60;;;;;;;1.96;100.00;102546.44;1909184;75;26175;-77
2021/01/18 04:51:18;;;;;;;15.77;4.37;;;;;;;1.89;100.00;102542.72;1909166;75;26618;-77
2021/01/18 04:53:51;;;;;;;6.40;3.33;;;;;;;1.97;100.00;102541.81;1909095;75;26233;-77
2021/01/18 04:56:37;;;;;;;13.73;3.80;;;;;;;2.02;100.00;102537.45;1909091;75;26214;-77
2021/01/18 04:59:11;;;;;;;10.03;4.00;;;;;;;2.10;100.00;102533.75;1909313;75;26223;-77
2021/01/18 05:01:44;;;;;;;17.30;5.20;;;;;;;1.99;100.00;102526.87;1896718;75;932554;-77
2021/01/18 05:04:19;;;;;;;11.43;3.80;;;;;;;2.04;100.00;102534.53;1909293;75;26174;-77
2021/01/18 05:06:50;;;;;;;12.93;3.70;;;;;;;2.34;100.00;102531.27;1908767;75;26179;-77
2021/01/18 05:09:29;;;;;;;11.10;3.70;;;;;;;2.22;100.00;102529.53;1909127;75;26178;-77
2021/01/18 05:12:02;;;;;;;10.07;3.83;;;;;;;2.20;100.00;102528.34;1909243;75;26179;-78
2021/01/18 05:14:34;;;;;;;14.30;4.13;;;;;;;2.29;100.00;102518.13;1909184;75;26634;-77
2021/01/18 05:17:06;;;;;;;15.07;4.10;;;;;;;2.12;100.00;102519.36;1909159;75;26681;-76
2021/01/18 05:19:37;;;;;;;10.63;4.17;;;;;;;1.89;100.00;102513.95;1909160;75;26607;-76
2021/01/18 05:22:07;;;;;;;12.73;4.20;;;;;;;2.34;100.00;102514.81;1909050;75;26269;-79
2021/01/18 05:24:37;;;;;;;13.33;3.97;;;;;;;2.34;100.00;102506.59;1909090;75;26206;-80
2021/01/18 05:27:09;;;;;;;13.63;4.67;;;;;;;2.29;100.00;102506.64;1909076;75;26256;-80
2021/01/18 05:29:39;;;;;;;13.57;4.07;;;;;;;2.10;100.00;102511.83;1909110;74;26233;-79
2021/01/18 05:32:23;;;;;;;13.30;4.53;;;;;;;2.26;100.00;102506.17;1909143;75;26177;-78
2021/01/18 05:34:55;;;;;;;14.53;4.40;;;;;;;2.18;100.00;102507.65;1909124;75;26167;-78
2021/01/18 05:37:25;;;;;;;8.07;3.83;;;;;;;2.21;100.00;102501.78;1909537;75;26613;-79
2021/01/18 05:39:55;;;;;;;10.50;4.63;;;;;;;1.98;100.00;102502.38;1909153;75;26176;-79
2021/01/18 05:42:25;;;;;;;13.60;3.57;;;;;;;2.02;100.00;102508.67;1909105;75;26190;-79
2021/01/18 05:44:55;;;;;;;15.40;4.10;;;;;;;2.54;100.00;102503.58;1909116;75;26642;-78
2021/01/18 05:47:25;;;;;;;14.30;3.90;;;;;;;2.46;100.00;102494.94;1909189;75;26590;-78
2021/01/18 05:49:56;;;;;;;14.70;3.70;;;;;;;2.43;100.00;102492.59;1909224;75;26256;-78
2021/01/18 05:52:29;;;;;;;14.10;3.63;;;;;;;2.48;100.00;102491.47;1909075;75;26614;-78
2021/01/18 05:55:19;;;;;;;10.80;3.93;;;;;;;2.51;100.00;102491.11;1909101;75;26178;-77
2021/01/18 05:57:52;;;;;;;9.90;3.50;;;;;;;2.42;100.00;102489.52;1909101;75;26598;-78
2021/01/18 06:00:29;;;;;;;11.20;3.67;;;;;;;2.45;100.00;102486.38;1909247;75;26656;-79
2021/01/18 06:03:01;;;;;;;15.80;3.73;;;;;;;2.31;100.00;102487.23;1909164;75;26272;-79
2021/01/18 06:05:33;;;;;;;16.33;3.77;;;;;;;2.52;100.00;102490.07;1909194;75;26617;-79
2021/01/18 06:08:11;;;;;;;13.63;3.93;;;;;;;2.43;100.00;102492.59;1909149;75;26512;-79
2021/01/18 06:10:42;;;;;;;11.20;3.93;;;;;;;2.51;100.00;102492.48;1909246;75;26606;-79
2021/01/18 06:13:23;;;;;;;8.43;3.00;;;;;;;2.71;100.00;102490.81;1909208;75;26660;-79
2021/01/18 06:16:11;;;;;;;11.87;3.70;;;;;;;2.57;100.00;102494.44;1909241;75;26159;-79
2021/01/18 06:18:42;;;;;;;13.97;3.57;;;;;;;2.61;100.00;102491.63;1909222;75;26244;-79
2021/01/18 06:21:13;;;;;;;11.10;3.40;;;;;;;2.50;100.00;102494.88;1909171;75;26685;-79
2021/01/18 06:23:43;;;;;;;10.67;4.00;;;;;;;2.51;100.00;102500.70;1909247;75;26797;-78
2021/01/18 06:26:13;;;;;;;10.07;4.63;;;;;;;2.62;100.00;102499.34;1909172;75;26213;-78
2021/01/18 06:28:43;;;;;;;12.63;4.80;;;;;;;2.52;100.00;102502.41;1909135;75;26233;-78
2021/01/18 06:31:15;;;;;;;13.50;6.27;;;;;;;2.60;100.00;102497.33;1909154;75;26665;-78
2021/01/18 06:33:46;;;;;;;15.93;4.40;;;;;;;2.65;100.00;102494.86;1909191;75;26240;-77
2021/01/18 06:36:18;;;;;;;11.83;5.77;;;;;;;2.57;100.00;102505.92;1909089;75;26163;-77
2021/01/18 06:38:51;;;;;;;12.77;5.40;;;;;;;2.52;100.00;102507.05;1909154;75;26183;-77
2021/01/18 06:41:28;;;;;;;12.93;5.00;;;;;;;2.45;100.00;102512.95;1909080;75;26612;-78
2021/01/18 06:43:58;;;;;;;11.10;4.37;;;;;;;2.43;100.00;102505.45;1909080;75;26180;-78
2021/01/18 06:46:31;;;;;;;10.03;4.17;;;;;;;2.50;100.00;102514.59;1909068;75;26178;-77
2021/01/18 06:49:01;;;;;;;10.87;3.77;;;;;;;2.65;100.00;102505.84;1909152;75;26174;-77
2021/01/18 06:51:33;;;;;;;8.00;3.67;;;;;;;2.48;100.00;102509.84;1909080;75;26563;-76
2021/01/18 06:54:06;;;;;;;9.60;3.00;;;;;;;2.53;100.00;102509.58;1909047;75;26688;-77
2021/01/18 06:57:02;;;;;;;11.63;2.93;;;;;;;2.48;100.00;102511.22;1909382;75;26299;-77
2021/01/18 06:59:53;;;;;;;12.63;4.23;;;;;;;2.44;100.00;102513.46;1909147;75;26228;-77
2021/01/18 07:02:29;;;;;;;8.63;3.60;;;;;;;2.83;100.00;102508.13;1909193;75;26226;-77
2021/01/18 07:05:10;;;;;;;14.07;3.87;;;;;;;2.91;100.00;102507.48;1909054;75;26269;-78
2021/01/18 07:07:40;;;;;;;10.40;3.77;;;;;;;2.94;100.00;102503.00;1909099;75;26163;-79
2021/01/18 07:10:12;;;;;;;16.57;3.83;;;;;;;2.92;100.00;102497.36;1909167;75;26175;-78
2021/01/18 07:12:43;;;;;;;10.60;3.67;;;;;;;3.21;100.00;102502.21;1909060;75;26653;-78
2021/01/18 07:15:16;;;;;;;10.37;3.60;;;;;;;2.65;100.00;102466.88;1909084;75;26245;-78
2021/01/18 07:17:54;;;;;;;12.17;3.47;;;;;;;3.05;100.00;102496.98;1909170;75;26187;-79
2021/01/18 07:20:27;;;;;;;9.07;3.47;;;;;;;2.99;100.00;102498.31;1909154;75;26675;-79
2021/01/18 07:23:06;;;;;;;10.93;3.43;;;;;;;3.04;100.00;102495.80;1908968;75;26288;-79
2021/01/18 07:25:38;;;;;;;12.20;3.67;;;;;;;3.07;100.00;102503.15;1909307;75;26268;-79
2021/01/18 07:28:09;;;;;;;11.23;3.97;;;;;;;3.24;100.00;102510.59;1909138;75;26256;-79
2021/01/18 07:30:40;;;;;;;14.00;4.20;;;;;;;3.45;100.00;102509.21;1909027;74;26245;-80
2021/01/18 07:33:12;;;;;;;10.17;3.23;;;;;;;3.32;100.00;102517.84;1909153;75;26255;-80
2021/01/18 07:35:45;;;;;;;11.10;3.40;;;;;;;3.21;100.00;102521.95;1909161;75;26213;-80
2021/01/18 07:38:18;;;;;;;9.57;4.00;;;;;;;3.03;100.00;102512.82;1909022;75;26225;-81
2021/01/18 07:41:13;;;;;;;11.73;4.10;;;;;;;3.10;100.00;102518.37;1909218;75;26174;-80
2021/01/18 07:43:45;;;;;;;11.10;3.30;;;;;;;3.43;100.00;102524.17;1909151;75;26715;-80
2021/01/18 07:46:36;;;;;;;10.27;3.00;;;;;;;3.22;100.00;102519.55;1909214;75;26175;-79
2021/01/18 07:49:34;;;;;;;11.43;4.27;;;;;;;3.61;100.00;102513.56;1909258;75;26264;-80
2021/01/18 07:52:31;;;;;;;11.10;3.17;;;;;;;3.28;100.00;102510.53;1909356;75;26182;-80
2021/01/18 07:55:03;;;;;;;10.63;2.77;;;;;;;3.37;100.00;102521.72;1909269;75;26170;-82
2021/01/18 07:57:41;;;;;;;9.10;3.53;;;;;;;3.38;100.00;102518.45;1909591;75;26337;-81
2021/01/18 08:00:34;;;;;;;9.07;3.37;;;;;;;3.52;100.00;102514.23;1909234;75;26239;-81
2021/01/18 08:03:26;;;;;;;11.27;3.83;;;;;;;3.59;100.00;102513.75;1909561;75;26653;-81
2021/01/18 08:06:10;;;;;;;11.53;3.37;;;;;;;3.60;100.00;102502.23;1910129;75;26199;-79
2021/01/18 08:08:41;;;;;;;9.27;3.43;;;;;;;3.68;100.00;102505.69;1909372;75;26597;-81
2021/01/18 08:11:24;;;;;;;7.67;3.47;;;;;;;3.47;100.00;102503.50;1909200;75;26186;-84
2021/01/18 08:14:01;;;;;;;16.27;3.53;;;;;;;3.60;100.00;102506.36;1909272;75;26175;-85
2021/01/18 08:16:43;;;;;;;8.90;4.00;;;;;;;3.55;100.00;102505.58;1909364;75;26204;-84
2021/01/18 08:19:24;;;;;;;5.90;3.10;;;;;;;3.76;100.00;102499.74;1909274;75;26234;-84
2021/01/18 08:21:59;;;;;;;11.80;3.30;;;;;;;3.75;100.00;102504.39;1909429;75;26160;-82
2021/01/18 08:24:57;;;;;;;10.47;3.40;;;;;;;3.71;100.00;102511.33;1909280;75;26222;-82
2021/01/18 08:27:46;;;;;;;7.73;3.57;;;;;;;3.65;100.00;102514.34;1909471;75;26220;-83
2021/01/18 08:30:29;;;;;;;8.77;3.87;;;;;;;3.81;100.00;102509.06;1909418;75;26166;-83
2021/01/18 08:33:00;;;;;;;13.80;3.87;;;;;;;3.68;100.00;102505.39;1909171;74;26233;-81
2021/01/18 08:35:51;;;;;;;15.10;5.60;;;;;;;3.77;100.00;102501.42;1909191;75;26244;-82
2021/01/18 08:38:29;;;;;;;12.97;4.67;;;;;;;3.85;100.00;102497.17;1909181;75;26224;-81
2021/01/18 08:41:08;;;;;;;12.80;5.03;;;;;;;3.93;100.00;102495.11;1909316;75;26175;-81
2021/01/18 08:43:50;;;;;;;9.77;4.50;;;;;;;4.07;100.00;102498.25;1909274;75;26244;-79
2021/01/18 08:46:33;;;;;;;24.17;5.17;;;;;;;4.16;100.00;102494.81;1909363;75;26174;-80
2021/01/18 08:49:27;;;;;;;11.50;3.70;;;;;;;4.26;100.00;102490.33;1909838;75;26669;-80
2021/01/18 08:51:59;;;;;;;7.90;4.40;;;;;;;4.21;100.00;102479.93;1909392;75;26232;-81
2021/01/18 08:54:31;;;;;;;10.30;5.23;;;;;;;4.36;100.00;102480.66;1909302;75;26155;-84
2021/01/18 08:57:24;;;;;;;10.13;6.37;;;;;;;4.38;100.00;102479.91;1909388;75;26183;-80
2021/01/18 09:00:13;;;;;;;8.03;4.53;;;;;;;4.48;100.00;102483.14;1909517;75;26625;-79
2021/01/18 09:02:45;;;;;;;9.80;4.80;;;;;;;4.63;100.00;102478.84;1909591;75;26316;-81
2021/01/18 09:05:19;;;;;;;7.53;3.70;;;;;;;4.64;100.00;102470.91;1909997;75;26207;-79
2021/01/18 09:07:51;;;;;;;9.33;3.90;;;;;;;4.82;100.00;102477.22;1910077;75;26240;-78
2021/01/18 09:10:22;;;;;;;6.10;3.30;;;;;;;4.89;100.00;102473.42;1910108;75;26698;-79
2021/01/18 09:12:53;;;;;;;6.50;3.00;;;;;;;5.09;100.00;102476.23;1909427;75;26616;-78
2021/01/18 09:15:23;;;;;;;5.73;2.77;;;;;;;5.24;100.00;102478.26;1909294;75;26252;-78
2021/01/18 09:17:53;;;;;;;4.57;2.70;;;;;;;5.31;100.00;102470.83;1909251;75;26662;-79
2021/01/18 09:20:23;;;;;;;8.20;3.60;;;;;;;5.37;100.00;102470.53;1909440;75;26248;-80
2021/01/18 09:22:53;;;;;;;7.63;2.83;;;;;;;5.39;100.00;102467.05;1909406;75;26221;-80
2021/01/18 09:25:23;;;;;;;5.73;2.57;;;;;;;5.45;100.00;102466.18;1909296;75;26974;-80
2021/01/18 09:27:53;;;;;;;7.23;5.23;;;;;;;5.51;100.00;102459.83;1909281;75;26539;-80
2021/01/18 09:30:26;;;;;;;7.30;4.30;;;;;;;5.38;100.00;102459.83;1909145;75;26640;-80
2021/01/18 09:32:56;;;;;;;10.43;4.47;;;;;;;5.62;100.00;102451.44;1909120;74;26667;-81
2021/01/18 09:35:27;;;;;;;5.83;3.03;;;;;;;5.61;100.00;102452.48;1909194;75;26197;-81
2021/01/18 09:37:58;;;;;;;4.00;2.80;;;;;;;5.72;100.00;102453.23;1909186;75;26251;-84
2021/01/18 09:40:33;;;;;;;3.83;2.50;;;;;;;5.77;100.00;102454.83;1909251;75;26672;-84
2021/01/18 09:43:03;;;;;;;6.77;2.17;;;;;;;5.77;100.00;102458.96;1909187;75;26275;-82
2021/01/18 09:45:34;;;;;;;5.00;2.00;;;;;;;5.85;100.00;102462.34;1909163;75;26791;-82
2021/01/18 09:48:07;;;;;;;12.63;2.77;;;;;;;5.89;100.00;102450.37;1909253;75;26646;-82
2021/01/18 09:50:39;;;;;;;9.10;2.07;;;;;;;6.93;100.00;102455.12;1909185;75;26256;-83
2021/01/18 09:53:10;;;;;;;6.83;1.87;;;;;;;7.88;100.00;102453.93;1909197;75;26236;-82
2021/01/18 09:55:45;;;;;;;5.90;2.40;;;;;;;6.77;100.00;102452.89;1909236;75;26182;-82
2021/01/18 09:58:18;;;;;;;4.00;1.67;;;;;;;6.12;100.00;102452.11;1909133;75;26218;-82
2021/01/18 10:00:50;;;;;;;2.83;2.00;;;;;;;6.09;100.00;102455.30;1909269;75;26158;-79
2021/01/18 10:03:33;;;;;;;4.60;2.47;;;;;;;6.10;100.00;102454.78;1909231;75;26224;-81
2021/01/18 10:06:08;;;;;;;5.53;2.40;;;;;;;6.09;100.00;102459.45;1841725;78;26307;-79
2021/01/18 10:08:40;;;;;;;4.23;1.80;;;;;;;6.12;100.00;102448.53;1843422;78;26268;-77
2021/01/18 10:11:10;;;;;;;4.20;1.80;;;;;;;6.22;100.00;102455.27;1843412;78;26202;-79
2021/01/18 10:13:40;;;;;;;8.00;3.27;;;;;;;6.16;100.00;102451.98;1843339;78;26785;-80
2021/01/18 10:16:12;;;;;;;5.03;2.17;;;;;;;6.21;100.00;102450.80;1843440;78;26301;-78
2021/01/18 10:18:47;;;;;;;6.03;2.30;;;;;;;6.18;100.00;102452.63;1843335;78;26213;-79
2021/01/18 10:21:17;;;;;;;4.87;2.07;;;;;;;6.19;100.00;102459.00;1843346;78;26675;-79
2021/01/18 10:23:49;;;;;;;3.53;1.70;;;;;;;6.27;100.00;102461.52;1843307;78;26235;-79
2021/01/18 10:26:22;;;;;;;4.10;1.70;;;;;;;6.44;100.00;102458.59;1843337;78;26186;-78
2021/01/18 10:29:01;;;;;;;2.77;1.60;;;;;;;6.32;100.00;102458.95;1915187;75;26194;-78
2021/01/18 10:31:33;;;;;;;2.83;1.37;;;;;;;6.34;100.00;102455.43;1915307;75;26174;-79
2021/01/18 10:34:12;;;;;;;4.13;2.13;;;;;;;6.45;100.00;102452.53;1915096;75;26755;-80
2021/01/18 10:36:43;;;;;;;3.77;1.40;;;;;;;6.49;100.00;102456.02;1915222;75;26170;-79
2021/01/18 10:39:28;;;;;;;2.87;1.50;;;;;;;6.56;100.00;102455.98;1915176;75;26255;-78
2021/01/18 10:42:05;;;;;;;3.50;1.60;;;;;;;6.61;100.00;102447.89;1915193;75;26248;-78
2021/01/18 10:44:36;;;;;;;3.70;1.40;;;;;;;6.59;100.00;102448.66;1915179;75;26186;-79
2021/01/18 10:47:07;;;;;;;5.63;1.70;;;;;;;6.65;100.00;102453.28;1915169;75;26620;-79
2021/01/18 10:49:38;;;;;;;5.43;1.53;;;;;;;6.64;100.00;102437.78;1915140;75;26248;-79
2021/01/18 10:52:10;;;;;;;4.73;1.57;;;;;;;6.74;100.00;102438.16;1915269;75;26175;-79
2021/01/18 10:54:41;;;;;;;2.77;1.33;;;;;;;6.79;100.00;102445.25;1915278;75;26589;-78
2021/01/18 10:57:21;;;;;;;3.40;1.33;;;;;;;6.82;100.00;102435.98;1915469;75;26689;-78
2021/01/18 11:00:08;;;;;;;4.57;2.00;;;;;;;6.76;100.00;102428.57;1915178;75;26170;-79
2021/01/18 11:02:42;;;;;;;6.87;1.70;;;;;;;6.84;100.00;102431.09;1915415;75;26264;-84
2021/01/18 11:05:17;;;;;;;4.73;1.30;;;;;;;6.88;100.00;102432.02;1915443;75;26200;-79
2021/01/18 11:07:49;;;;;;;3.97;1.50;;;;;;;6.86;100.00;102428.95;1915419;75;26323;-78
2021/01/18 11:10:25;;;;;;;5.20;2.40;;;;;;;6.87;100.00;102424.27;1915405;75;26206;-79
2021/01/18 11:13:07;;;;;;;2.93;1.90;;;;;;;6.95;100.00;102419.86;1915332;75;26185;-81
2021/01/18 11:15:40;;;;;;;5.40;1.70;;;;;;;7.00;100.00;102410.90;1915238;75;26632;-78
2021/01/18 11:18:12;;;;;;;5.73;1.33;;;;;;;7.01;100.00;102418.98;1915414;75;26267;-78
2021/01/18 11:20:46;;;;;;;4.23;1.40;;;;;;;7.04;100.00;102408.84;1915337;75;26242;-78
2021/01/18 11:23:17;;;;;;;2.47;1.97;;;;;;;7.11;100.00;102404.64;1915184;75;26213;-79
2021/01/18 11:25:47;;;;;;;4.33;1.50;;;;;;;7.13;100.00;102397.84;1915272;75;26720;-79
2021/01/18 11:28:19;;;;;;;2.60;1.77;;;;;;;7.18;100.00;102395.78;1915296;75;26562;-80
2021/01/18 11:30:49;;;;;;;3.73;1.67;;;;;;;7.21;100.00;102387.88;1915314;75;26204;-80
2021/01/18 11:33:21;;;;;;;2.57;1.47;;;;;;;7.21;100.00;102387.03;1915221;74;26973;-82
2021/01/18 11:35:52;;;;;;;5.13;1.23;;;;;;;7.17;100.00;102381.65;1915356;75;26163;-80
2021/01/18 11:38:22;;;;;;;5.07;1.20;;;;;;;7.18;100.00;102380.59;1915344;75;26664;-75
2021/01/18 11:40:53;;;;;;;4.47;1.60;;;;;;;7.17;100.00;102374.73;1915280;75;26170;-80
2021/01/18 11:43:23;;;;;;;3.60;1.40;;;;;;;7.29;100.00;102379.30;1915381;75;26763;-82
2021/01/18 11:45:53;;;;;;;2.93;1.30;;;;;;;7.31;100.00;102373.56;1915339;75;26605;-83
2021/01/18 11:48:23;;;;;;;3.67;1.20;;;;;;;7.23;100.00;102356.70;1915259;75;26247;-82
2021/01/18 11:50:53;;;;;;;66.20;8.47;;;;;;;7.18;100.00;102355.71;1915254;75;26631;-80